Terminal Aerodrome Forecast
Issued by NWS Sioux Falls, SD

Home | Current Version | Previous Version | Graphics & Text | Print | Product List | Glossary On
Versions: 1 2 3 4 5 6 7 8 9 10 11 12 13 14 15 16
804
FTUS43 KFSD 161317 AAC
TAFFSD
TAF AMD
KFSD 161317Z 1613/1712 33010KT P6SM VCSH OVC009
     FM161500 34009KT P6SM VCSH OVC010
     FM161700 33011KT P6SM VCSH OVC015
     FM162100 32010KT P6SM VCSH OVC020
     FM162300 32008KT P6SM OVC030
     FM170300 32009KT P6SM SCT080
     FM170900 31005KT P6SM FEW250=

USA.gov is the U.S. government's official web portal to all federal, state and local government web resources and services.